Songpan, China
Current Conditions -  °F | °C
As of 8:00 AM on Saturday 25 Oct 2014 (Local Time) from ZUUU Reporting Station
Moderate Fog Moderate Fog  
Wind Chill: 59°   Ceiling: Unl
Heat Index: 59°   Visibility: 0.56mi
Dew Point: 55°   Wind: 4mph
Humidity: 88%   Direction: 210°SSW
Pressure: 30.06"   Gusts: NA
Location:  32.65°N, 103.57°E
Report Text: ZUUU 250000Z 21002MPS 0900 R02L/0800N R02R/0200V0325NFGFEW003 15/13 Q1018 BECMG TL0130 1500 BR
Loading
Personal Weather Stations






























Interactive Weather Map
Tropical Storm Tracking
New forecast layout! Learn more

10-Day Weather Forecast

Advertisements
Track Severe Weather on mobile